Paw Paw, Michigan
Current Conditions -  °F | °C
As of 8:53 PM on Wednesday 22 Oct 2014 (Local Time) from KAZO Reporting Station
Clear Clear  
Wind Chill: 41°   Ceiling: Unl
Heat Index: 41°   Visibility: 10mi
Dew Point: 36°   Wind: 3mph
Humidity: 82%   Direction: 90°E
Pressure: 30.3"   Gusts: NA
Location:  42.22°N, 85.89°W
Report Text: KAZO 230053Z 09003KT 10SM CLR 05/02 A3030 RMK AO2 SLP268 T00500022
Loading
Personal Weather Stations






























Interactive Weather Map
Tropical Storm Tracking
New forecast layout! Learn more

10-Day Weather Forecast

Advertisements
Track Severe Weather on mobile